createdAt,value
2022-08-05T00:03:15.681Z,2.20
2022-08-05T00:08:32.654Z,2.45
2022-08-05T00:13:59.903Z,2.17
2022-08-05T00:19:01.963Z,2.00
2022-08-05T00:24:10.242Z,1.75
2022-08-05T00:29:15.964Z,2.08
2022-08-05T00:34:55.923Z,1.75
2022-08-05T00:39:57.399Z,1.95
2022-08-05T00:50:20.886Z,1.40
2022-08-05T00:55:43.749Z,1.33
2022-08-05T01:01:08.725Z,1.65
2022-08-05T01:06:15.317Z,1.48
2022-08-05T01:11:40.261Z,1.20
2022-08-05T01:16:54.142Z,1.40
2022-08-05T01:22:27.774Z,1.58
2022-08-05T01:28:08.801Z,1.10
2022-08-05T01:33:25.426Z,1.20
2022-08-05T01:43:52.442Z,1.15
2022-08-05T01:48:57.981Z,1.50
2022-08-05T01:54:02.922Z,1.00
2022-08-05T01:59:10.361Z,0.98
2022-08-05T02:04:36.851Z,0.75
2022-08-05T02:09:42.761Z,1.50
2022-08-05T02:14:53.821Z,0.88
2022-08-05T02:20:03.716Z,0.82
2022-08-05T02:25:33.331Z,0.98
2022-08-05T02:30:54.357Z,0.82
2022-08-05T02:36:27.578Z,1.20
2022-08-05T02:41:43.258Z,0.88
2022-08-05T02:47:00.136Z,1.13
2022-08-05T02:52:07.720Z,0.90
2022-08-05T02:58:11.120Z,1.48
2022-08-05T03:02:44.155Z,0.80
2022-08-05T03:08:08.572Z,0.70
2022-08-05T03:13:17.557Z,0.88
2022-08-05T03:18:24.740Z,0.82
2022-08-05T03:23:40.882Z,1.00
2022-08-05T03:28:48.676Z,1.00
2022-08-05T03:33:53.285Z,0.90
2022-08-05T03:38:56.688Z,1.27
2022-08-05T03:44:11.151Z,1.17
2022-08-05T03:49:14.854Z,1.33
2022-08-05T03:55:52.265Z,1.20
2022-08-05T04:00:04.781Z,1.23
2022-08-05T04:05:33.250Z,1.27
2022-08-05T04:10:38.401Z,1.17
2022-08-05T04:16:03.331Z,0.70
2022-08-05T04:21:06.707Z,1.20
2022-08-05T04:26:08.942Z,3.00
2022-08-05T04:31:15.994Z,1.98
2022-08-05T04:36:46.471Z,2.00
2022-08-05T04:41:48.106Z,1.85
2022-08-05T04:46:51.140Z,1.52
2022-08-05T04:52:00.262Z,2.17
2022-08-05T05:02:07.732Z,1.70
2022-08-05T05:07:35.557Z,2.80
2022-08-05T05:12:57.641Z,1.30
2022-08-05T05:18:02.583Z,1.30
2022-08-05T05:23:06.928Z,1.48
2022-08-05T05:28:29.273Z,1.48
2022-08-05T05:33:32.024Z,1.70
2022-08-05T05:38:59.557Z,1.50
2022-08-05T05:44:03.181Z,2.17
2022-08-05T05:49:27.721Z,2.25
2022-08-05T05:54:50.574Z,1.70
2022-08-05T05:59:53.989Z,2.08
2022-08-05T06:04:57.029Z,1.40
2022-08-05T06:10:20.142Z,2.03
2022-08-05T06:16:30.493Z,1.50
2022-08-05T06:20:50.272Z,1.30
2022-08-05T06:26:24.148Z,1.80
2022-08-05T06:31:30.589Z,1.75
2022-08-05T06:36:53.488Z,1.93
2022-08-05T06:42:17.300Z,1.15
2022-08-05T06:48:37.016Z,1.42
2022-08-05T06:53:11.482Z,1.38
2022-08-05T06:58:35.378Z,1.52
2022-08-05T07:03:40.175Z,1.58
2022-08-05T07:09:04.309Z,1.83
2022-08-05T07:14:34.480Z,1.45
2022-08-05T07:20:23.080Z,0.98
2022-08-05T07:25:54.237Z,1.00
2022-08-05T07:30:43.255Z,1.20
2022-08-05T07:36:05.387Z,1.30
2022-08-05T07:42:09.396Z,0.98
2022-08-05T07:46:41.665Z,1.25
2022-08-05T07:52:09.722Z,1.17
2022-08-05T07:57:41.972Z,1.25
2022-08-05T08:03:15.328Z,1.30
2022-08-05T08:08:28.022Z,2.53
2022-08-05T08:13:32.336Z,1.67
2022-08-05T08:19:03.903Z,1.25
2022-08-05T08:24:14.063Z,0.98
2022-08-05T08:30:05.663Z,1.27
2022-08-05T08:34:57.758Z,1.70
2022-08-05T08:40:00.532Z,1.23
2022-08-05T08:45:18.732Z,1.83
2022-08-05T08:56:13.688Z,1.48
2022-08-05T09:01:34.405Z,1.30
2022-08-05T09:06:45.221Z,1.30
2022-08-05T09:11:57.764Z,1.30
2022-08-05T09:17:43.144Z,1.80
2022-08-05T09:23:18.754Z,1.27
2022-08-05T09:28:24.291Z,1.65
2022-08-05T09:34:03.765Z,1.45
2022-08-05T09:39:21.913Z,1.20
2022-08-05T09:44:52.443Z,1.25
2022-08-05T09:50:03.487Z,1.35
2022-08-05T09:55:57.697Z,1.50
2022-08-05T10:00:58.413Z,1.27
2022-08-05T10:06:28.429Z,1.38
2022-08-05T10:11:50.881Z,2.10
2022-08-05T10:16:57.931Z,1.15
2022-08-05T10:22:04.898Z,1.40
2022-08-05T10:27:18.200Z,1.23
2022-08-05T10:33:01.764Z,1.40
2022-08-05T10:38:08.408Z,1.13
2022-08-05T10:43:39.261Z,1.42
2022-08-05T10:48:57.163Z,1.00
2022-08-05T10:54:05.868Z,1.35
2022-08-05T11:00:03.195Z,1.42
2022-08-05T11:05:05.948Z,1.45
2022-08-05T11:10:27.231Z,1.50
2022-08-05T11:16:00.254Z,1.20
2022-08-05T11:21:32.103Z,1.55
2022-08-05T11:27:51.106Z,1.60
2022-08-05T11:33:46.103Z,1.45
2022-08-05T11:39:17.489Z,2.10
2022-08-05T11:44:53.186Z,1.40
2022-08-05T11:49:59.210Z,1.45
2022-08-05T11:55:10.673Z,1.38
2022-08-05T12:00:31.374Z,1.27
2022-08-05T12:05:39.765Z,1.42
2022-08-05T12:10:45.870Z,1.10
2022-08-05T12:16:19.156Z,1.27
2022-08-05T12:21:29.778Z,1.23
2022-08-05T12:26:38.161Z,1.30
2022-08-05T12:37:44.142Z,1.75
2022-08-05T12:48:44.232Z,1.35
2022-08-05T12:53:55.682Z,1.83
2022-08-05T12:59:46.930Z,1.83
2022-08-05T13:04:52.619Z,1.30
2022-08-05T13:10:01.197Z,1.40
2022-08-05T13:15:06.877Z,1.38
2022-08-05T13:20:21.683Z,1.70
2022-08-05T13:25:52.649Z,1.77
2022-08-05T13:30:48.941Z,1.58
2022-08-05T13:35:56.188Z,1.50
2022-08-05T13:41:25.727Z,2.08
2022-08-05T13:47:01.960Z,1.83
2022-08-05T13:52:12.651Z,1.60
2022-08-05T13:57:17.305Z,1.90
2022-08-05T14:02:20.245Z,1.90
2022-08-05T14:08:00.583Z,1.40
2022-08-05T14:13:23.491Z,1.98
2022-08-05T14:18:50.792Z,1.83
2022-08-05T14:24:19.480Z,1.80
2022-08-05T14:29:24.121Z,2.08
2022-08-05T14:34:48.722Z,1.52
2022-08-05T14:39:59.021Z,2.25
2022-08-05T14:45:03.262Z,1.50
2022-08-05T14:50:39.905Z,1.90
2022-08-05T14:56:10.223Z,1.77
2022-08-05T15:06:58.722Z,1.80
2022-08-05T15:12:03.870Z,1.95
2022-08-05T15:17:09.768Z,2.22
2022-08-05T15:22:30.333Z,1.98
2022-08-05T15:27:54.735Z,2.22
2022-08-05T15:32:57.266Z,2.17
2022-08-05T15:38:34.095Z,2.10
2022-08-05T15:43:45.939Z,2.00
2022-08-05T15:49:09.914Z,2.40
2022-08-05T15:54:15.959Z,2.10
2022-08-05T15:59:21.838Z,2.28
2022-08-05T16:04:50.229Z,2.30
2022-08-05T16:10:03.903Z,2.35
2022-08-05T16:15:51.553Z,2.28
2022-08-05T16:21:04.211Z,2.13
2022-08-05T16:26:11.807Z,2.17
2022-08-05T16:31:15.829Z,1.92
2022-08-05T16:36:27.842Z,2.28
2022-08-05T16:42:13.717Z,2.40
2022-08-05T16:46:57.403Z,2.45
2022-08-05T16:52:32.547Z,2.20
2022-08-05T16:57:53.098Z,2.10
2022-08-05T17:03:21.191Z,2.58
2022-08-05T17:08:36.569Z,1.92
2022-08-05T17:13:46.470Z,2.17
2022-08-05T17:18:50.344Z,2.78
2022-08-05T17:24:04.424Z,2.53
2022-08-05T17:29:10.683Z,2.38
2022-08-05T17:34:13.320Z,2.65
2022-08-05T17:39:24.380Z,2.50
2022-08-05T17:44:33.884Z,3.20
2022-08-05T17:49:59.944Z,2.47
2022-08-05T17:55:03.131Z,2.40
2022-08-05T18:00:28.600Z,2.40
2022-08-05T18:10:59.070Z,2.70
2022-08-05T18:16:07.108Z,2.33
2022-08-05T18:22:08.916Z,1.85
2022-08-05T18:27:55.603Z,1.88
2022-08-05T18:33:01.125Z,2.17
2022-08-05T18:38:09.453Z,1.65
2022-08-05T18:43:31.554Z,1.90
2022-08-05T18:48:41.495Z,2.45
2022-08-05T18:53:45.972Z,2.50
2022-08-05T18:58:59.813Z,2.10
2022-08-05T19:04:05.476Z,2.60
2022-08-05T19:09:26.322Z,2.50
2022-08-05T19:14:44.488Z,2.20
2022-08-05T19:19:53.149Z,1.55
2022-08-05T19:25:02.657Z,1.77
2022-08-05T19:30:30.895Z,2.07
2022-08-05T19:35:56.279Z,1.65
2022-08-05T19:40:55.597Z,1.40
2022-08-05T19:46:03.285Z,2.40
2022-08-05T19:51:05.697Z,2.30
2022-08-05T19:56:15.640Z,2.33
2022-08-05T20:01:31.583Z,2.25
2022-08-05T20:06:57.202Z,2.38
2022-08-05T20:12:00.340Z,1.90
2022-08-05T20:17:06.292Z,2.30
2022-08-05T20:22:09.558Z,2.22
2022-08-05T20:27:42.097Z,2.53
2022-08-05T20:32:48.445Z,2.10
2022-08-05T20:38:08.097Z,2.42
2022-08-05T20:43:14.702Z,2.15
2022-08-05T20:48:17.352Z,2.08
2022-08-05T20:53:36.616Z,2.28
2022-08-05T20:59:14.264Z,1.95
2022-08-05T21:04:40.008Z,2.65
2022-08-05T21:09:50.110Z,2.75
2022-08-05T21:14:55.888Z,2.75
2022-08-05T21:20:05.634Z,1.77
2022-08-05T21:25:12.540Z,1.80
2022-08-05T21:30:32.963Z,3.20
2022-08-05T21:35:43.780Z,3.30
2022-08-05T21:40:59.373Z,2.38
2022-08-05T21:46:22.253Z,2.63
2022-08-05T21:52:15.900Z,2.63
2022-08-05T21:56:51.457Z,2.47
2022-08-05T22:01:59.902Z,2.25
2022-08-05T22:07:02.422Z,2.83
2022-08-05T22:12:10.533Z,3.35
2022-08-05T22:17:14.605Z,2.10
2022-08-05T22:22:27.178Z,3.33
2022-08-05T22:28:09.152Z,3.58
2022-08-05T22:32:56.823Z,2.60
2022-08-05T22:38:06.672Z,3.00
2022-08-05T22:43:12.861Z,2.90
2022-08-05T22:48:15.721Z,2.17
2022-08-05T22:53:43.423Z,2.80
2022-08-05T22:58:53.290Z,2.33
2022-08-05T23:04:16.461Z,2.20
2022-08-05T23:09:27.773Z,2.20
2022-08-05T23:14:43.640Z,2.97
2022-08-05T23:19:51.010Z,2.70
2022-08-05T23:25:00.696Z,2.65
2022-08-05T23:30:08.199Z,2.92
2022-08-05T23:35:13.231Z,2.47
2022-08-05T23:40:16.524Z,2.70
2022-08-05T23:45:29.581Z,2.97
2022-08-05T23:50:35.520Z,2.60
2022-08-05T23:55:56.521Z,2.85
